sensor_id;sensor_type;location;lat;lon;timestamp;temperature;humidity
13589;DHT22;6865;52.552;13.434;2023-01-29T00:02:00;0.10;99.90
13589;DHT22;6865;52.552;13.434;2023-01-29T00:04:27;0.10;99.90
13589;DHT22;6865;52.552;13.434;2023-01-29T00:06:53;0.00;99.90
13589;DHT22;6865;52.552;13.434;2023-01-29T00:09:20;0.10;99.90
13589;DHT22;6865;52.552;13.434;2023-01-29T00:11:47;-0.10;99.90
13589;DHT22;6865;52.552;13.434;2023-01-29T00:14:13;0.00;99.90
13589;DHT22;6865;52.552;13.434;2023-01-29T00:16:40;0.00;99.90
13589;DHT22;6865;52.552;13.434;2023-01-29T00:19:07;0.10;99.90
13589;DHT22;6865;52.552;13.434;2023-01-29T00:21:34;0.10;99.90
13589;DHT22;6865;52.552;13.434;2023-01-29T00:24:00;0.00;99.90
13589;DHT22;6865;52.552;13.434;2023-01-29T00:26:27;0.00;99.90
13589;DHT22;6865;52.552;13.434;2023-01-29T00:28:55;-0.30;99.90
13589;DHT22;6865;52.552;13.434;2023-01-29T00:31:26;0.10;99.90
13589;DHT22;6865;52.552;13.434;2023-01-29T00:33:52;0.10;99.90
13589;DHT22;6865;52.552;13.434;2023-01-29T00:36:20;0.20;99.90
13589;DHT22;6865;52.552;13.434;2023-01-29T00:39:01;0.10;99.90
13589;DHT22;6865;52.552;13.434;2023-01-29T00:41:36;0.20;99.90
13589;DHT22;6865;52.552;13.434;2023-01-29T00:44:22;0.10;99.90
13589;DHT22;6865;52.552;13.434;2023-01-29T00:47:07;0.20;99.90
13589;DHT22;6865;52.552;13.434;2023-01-29T00:49:54;0.20;99.90
13589;DHT22;6865;52.552;13.434;2023-01-29T00:52:22;0.20;99.90
13589;DHT22;6865;52.552;13.434;2023-01-29T00:54:53;0.30;99.90
13589;DHT22;6865;52.552;13.434;2023-01-29T00:57:20;0.30;99.90
13589;DHT22;6865;52.552;13.434;2023-01-29T00:59:46;0.30;99.90
13589;DHT22;6865;52.552;13.434;2023-01-29T01:02:13;0.30;99.90
13589;DHT22;6865;52.552;13.434;2023-01-29T01:04:58;-0.30;99.90
13589;DHT22;6865;52.552;13.434;2023-01-29T01:07:28;0.30;99.90
13589;DHT22;6865;52.552;13.434;2023-01-29T01:09:55;0.20;99.90
13589;DHT22;6865;52.552;13.434;2023-01-29T01:12:42;-0.60;99.90
13589;DHT22;6865;52.552;13.434;2023-01-29T01:15:09;0.20;99.90
13589;DHT22;6865;52.552;13.434;2023-01-29T01:17:36;0.20;99.90
13589;DHT22;6865;52.552;13.434;2023-01-29T01:20:03;0.20;99.90
13589;DHT22;6865;52.552;13.434;2023-01-29T01:22:29;0.20;99.90
13589;DHT22;6865;52.552;13.434;2023-01-29T01:24:57;0.20;99.90
13589;DHT22;6865;52.552;13.434;2023-01-29T01:27:23;-0.40;99.90
13589;DHT22;6865;52.552;13.434;2023-01-29T01:29:51;0.20;99.90
13589;DHT22;6865;52.552;13.434;2023-01-29T01:32:17;0.20;99.90
13589;DHT22;6865;52.552;13.434;2023-01-29T01:34:44;0.30;99.90
13589;DHT22;6865;52.552;13.434;2023-01-29T01:37:10;0.30;99.90
13589;DHT22;6865;52.552;13.434;2023-01-29T01:39:37;0.30;99.90
13589;DHT22;6865;52.552;13.434;2023-01-29T01:42:08;0.50;99.90
13589;DHT22;6865;52.552;13.434;2023-01-29T01:44:52;0.30;99.90
13589;DHT22;6865;52.552;13.434;2023-01-29T01:47:34;0.20;99.90
13589;DHT22;6865;52.552;13.434;2023-01-29T01:50:08;0.20;99.90
13589;DHT22;6865;52.552;13.434;2023-01-29T01:52:40;0.20;99.90
13589;DHT22;6865;52.552;13.434;2023-01-29T01:55:08;0.20;99.90
13589;DHT22;6865;52.552;13.434;2023-01-29T01:57:37;0.20;99.90
13589;DHT22;6865;52.552;13.434;2023-01-29T02:00:08;0.30;99.90
13589;DHT22;6865;52.552;13.434;2023-01-29T02:02:42;0.30;99.90
13589;DHT22;6865;52.552;13.434;2023-01-29T02:05:30;0.30;99.90
13589;DHT22;6865;52.552;13.434;2023-01-29T02:08:29;0.20;99.90
13589;DHT22;6865;52.552;13.434;2023-01-29T02:11:16;0.20;99.90
13589;DHT22;6865;52.552;13.434;2023-01-29T02:13:43;0.20;99.90
13589;DHT22;6865;52.552;13.434;2023-01-29T02:16:10;0.20;99.90
13589;DHT22;6865;52.552;13.434;2023-01-29T02:18:37;0.20;99.90
13589;DHT22;6865;52.552;13.434;2023-01-29T02:21:24;0.00;99.90
13589;DHT22;6865;52.552;13.434;2023-01-29T02:24:15;0.30;99.90
13589;DHT22;6865;52.552;13.434;2023-01-29T02:27:06;0.30;99.90
13589;DHT22;6865;52.552;13.434;2023-01-29T02:29:57;0.30;99.90
13589;DHT22;6865;52.552;13.434;2023-01-29T02:35:34;0.30;99.90
13589;DHT22;6865;52.552;13.434;2023-01-29T02:41:03;0.40;99.90
13589;DHT22;6865;52.552;13.434;2023-01-29T02:44:04;0.40;99.90
13589;DHT22;6865;52.552;13.434;2023-01-29T02:46:56;0.50;99.90
13589;DHT22;6865;52.552;13.434;2023-01-29T02:49:46;0.60;99.90
13589;DHT22;6865;52.552;13.434;2023-01-29T02:52:18;0.60;99.90
13589;DHT22;6865;52.552;13.434;2023-01-29T02:54:56;0.50;99.90
13589;DHT22;6865;52.552;13.434;2023-01-29T02:57:31;0.50;99.90
13589;DHT22;6865;52.552;13.434;2023-01-29T03:00:19;0.30;99.90
13589;DHT22;6865;52.552;13.434;2023-01-29T03:02:58;0.40;99.90
13589;DHT22;6865;52.552;13.434;2023-01-29T03:05:42;0.40;99.90
13589;DHT22;6865;52.552;13.434;2023-01-29T03:08:14;0.40;99.90
13589;DHT22;6865;52.552;13.434;2023-01-29T03:11:03;0.40;99.90
13589;DHT22;6865;52.552;13.434;2023-01-29T03:13:40;0.40;99.90
13589;DHT22;6865;52.552;13.434;2023-01-29T03:16:39;0.40;99.90
13589;DHT22;6865;52.552;13.434;2023-01-29T03:19:14;0.40;99.90
13589;DHT22;6865;52.552;13.434;2023-01-29T03:21:54;0.50;99.90
13589;DHT22;6865;52.552;13.434;2023-01-29T03:24:34;0.50;99.90
13589;DHT22;6865;52.552;13.434;2023-01-29T03:27:25;0.40;99.90
13589;DHT22;6865;52.552;13.434;2023-01-29T03:30:13;0.00;99.90
13589;DHT22;6865;52.552;13.434;2023-01-29T03:33:03;0.40;99.90
13589;DHT22;6865;52.552;13.434;2023-01-29T03:35:39;0.50;99.90
13589;DHT22;6865;52.552;13.434;2023-01-29T03:38:10;0.50;99.90
13589;DHT22;6865;52.552;13.434;2023-01-29T03:41:09;0.50;99.90
13589;DHT22;6865;52.552;13.434;2023-01-29T03:43:50;0.50;99.90
13589;DHT22;6865;52.552;13.434;2023-01-29T03:46:40;0.50;99.90
13589;DHT22;6865;52.552;13.434;2023-01-29T03:49:16;0.60;99.90
13589;DHT22;6865;52.552;13.434;2023-01-29T03:52:14;0.60;99.90
13589;DHT22;6865;52.552;13.434;2023-01-29T03:54:55;0.50;99.90
13589;DHT22;6865;52.552;13.434;2023-01-29T03:57:32;0.40;99.90
13589;DHT22;6865;52.552;13.434;2023-01-29T04:00:27;2.40;99.90
13589;DHT22;6865;52.552;13.434;2023-01-29T04:05:54;0.60;99.90
13589;DHT22;6865;52.552;13.434;2023-01-29T04:08:27;0.60;99.90
13589;DHT22;6865;52.552;13.434;2023-01-29T04:10:58;0.70;99.90
13589;DHT22;6865;52.552;13.434;2023-01-29T04:13:29;0.80;99.90
13589;DHT22;6865;52.552;13.434;2023-01-29T04:16:00;0.80;99.90
13589;DHT22;6865;52.552;13.434;2023-01-29T04:18:27;0.80;99.90
13589;DHT22;6865;52.552;13.434;2023-01-29T04:20:54;0.70;99.90
13589;DHT22;6865;52.552;13.434;2023-01-29T04:23:23;0.60;99.90
13589;DHT22;6865;52.552;13.434;2023-01-29T04:26:18;0.50;99.90
13589;DHT22;6865;52.552;13.434;2023-01-29T04:29:03;0.60;99.90
13589;DHT22;6865;52.552;13.434;2023-01-29T04:31:46;0.50;99.90
13589;DHT22;6865;52.552;13.434;2023-01-29T04:34:24;0.50;99.90
13589;DHT22;6865;52.552;13.434;2023-01-29T04:37:14;0.50;99.90
13589;DHT22;6865;52.552;13.434;2023-01-29T04:45:17;0.50;99.90
13589;DHT22;6865;52.552;13.434;2023-01-29T04:48:15;0.40;99.90
13589;DHT22;6865;52.552;13.434;2023-01-29T04:54:06;0.50;99.90
13589;DHT22;6865;52.552;13.434;2023-01-29T04:59:38;0.50;99.90
13589;DHT22;6865;52.552;13.434;2023-01-29T05:02:07;0.50;99.90
13589;DHT22;6865;52.552;13.434;2023-01-29T05:04:37;0.50;99.90
13589;DHT22;6865;52.552;13.434;2023-01-29T05:07:07;0.20;99.90
13589;DHT22;6865;52.552;13.434;2023-01-29T05:09:36;0.50;99.90
13589;DHT22;6865;52.552;13.434;2023-01-29T05:12:08;0.40;99.90
13589;DHT22;6865;52.552;13.434;2023-01-29T05:14:36;0.40;99.90
13589;DHT22;6865;52.552;13.434;2023-01-29T05:17:09;0.40;99.90
13589;DHT22;6865;52.552;13.434;2023-01-29T05:19:38;0.40;99.90
13589;DHT22;6865;52.552;13.434;2023-01-29T05:22:05;0.40;99.90
13589;DHT22;6865;52.552;13.434;2023-01-29T05:24:34;0.50;99.90
13589;DHT22;6865;52.552;13.434;2023-01-29T05:27:01;0.50;99.90
13589;DHT22;6865;52.552;13.434;2023-01-29T05:29:47;0.50;99.90
13589;DHT22;6865;52.552;13.434;2023-01-29T05:32:14;0.50;99.90
13589;DHT22;6865;52.552;13.434;2023-01-29T05:34:41;0.40;99.90
13589;DHT22;6865;52.552;13.434;2023-01-29T05:37:09;0.40;99.90
13589;DHT22;6865;52.552;13.434;2023-01-29T05:39:35;0.40;99.90
13589;DHT22;6865;52.552;13.434;2023-01-29T05:42:02;0.50;99.90
13589;DHT22;6865;52.552;13.434;2023-01-29T05:44:29;0.40;99.90
13589;DHT22;6865;52.552;13.434;2023-01-29T05:46:55;0.40;99.90
13589;DHT22;6865;52.552;13.434;2023-01-29T05:49:22;0.40;99.90
13589;DHT22;6865;52.552;13.434;2023-01-29T05:51:48;0.40;99.90
13589;DHT22;6865;52.552;13.434;2023-01-29T05:54:18;0.70;99.90
13589;DHT22;6865;52.552;13.434;2023-01-29T05:56:45;0.50;99.90
13589;DHT22;6865;52.552;13.434;2023-01-29T05:59:12;0.50;99.90
13589;DHT22;6865;52.552;13.434;2023-01-29T06:01:38;0.50;99.90
13589;DHT22;6865;52.552;13.434;2023-01-29T06:04:05;0.50;99.90
13589;DHT22;6865;52.552;13.434;2023-01-29T06:06:32;0.50;99.90
13589;DHT22;6865;52.552;13.434;2023-01-29T06:08:58;0.50;99.90
13589;DHT22;6865;52.552;13.434;2023-01-29T06:11:25;0.50;99.90
13589;DHT22;6865;52.552;13.434;2023-01-29T06:13:51;0.50;99.90
13589;DHT22;6865;52.552;13.434;2023-01-29T06:16:18;0.60;99.90
13589;DHT22;6865;52.552;13.434;2023-01-29T06:18:45;0.60;99.90
13589;DHT22;6865;52.552;13.434;2023-01-29T06:21:12;0.20;99.90
13589;DHT22;6865;52.552;13.434;2023-01-29T06:23:40;0.60;99.90
13589;DHT22;6865;52.552;13.434;2023-01-29T06:26:09;0.60;99.90
13589;DHT22;6865;52.552;13.434;2023-01-29T06:28:37;0.60;99.90
13589;DHT22;6865;52.552;13.434;2023-01-29T06:31:05;0.70;99.90
13589;DHT22;6865;52.552;13.434;2023-01-29T06:33:51;0.70;99.90
13589;DHT22;6865;52.552;13.434;2023-01-29T06:36:18;0.60;99.90
13589;DHT22;6865;52.552;13.434;2023-01-29T06:38:45;0.70;99.90
13589;DHT22;6865;52.552;13.434;2023-01-29T06:41:15;0.70;99.90
13589;DHT22;6865;52.552;13.434;2023-01-29T06:43:44;0.70;99.90
13589;DHT22;6865;52.552;13.434;2023-01-29T06:46:10;0.60;99.90
13589;DHT22;6865;52.552;13.434;2023-01-29T06:48:37;0.60;99.90
13589;DHT22;6865;52.552;13.434;2023-01-29T06:51:05;0.60;99.90
13589;DHT22;6865;52.552;13.434;2023-01-29T06:53:32;0.60;99.90
13589;DHT22;6865;52.552;13.434;2023-01-29T06:55:59;0.60;99.90
13589;DHT22;6865;52.552;13.434;2023-01-29T06:58:26;0.60;99.90
13589;DHT22;6865;52.552;13.434;2023-01-29T07:00:53;0.60;99.90
13589;DHT22;6865;52.552;13.434;2023-01-29T07:03:19;0.60;99.90
13589;DHT22;6865;52.552;13.434;2023-01-29T07:05:50;0.60;99.90
13589;DHT22;6865;52.552;13.434;2023-01-29T07:08:18;0.60;99.90
13589;DHT22;6865;52.552;13.434;2023-01-29T07:10:44;0.60;99.90
13589;DHT22;6865;52.552;13.434;2023-01-29T07:13:11;0.60;99.90
13589;DHT22;6865;52.552;13.434;2023-01-29T07:15:37;0.60;99.90
13589;DHT22;6865;52.552;13.434;2023-01-29T07:18:04;0.60;99.90
13589;DHT22;6865;52.552;13.434;2023-01-29T07:20:41;0.70;99.90
13589;DHT22;6865;52.552;13.434;2023-01-29T07:23:12;0.70;99.90
13589;DHT22;6865;52.552;13.434;2023-01-29T07:25:39;0.70;99.90
13589;DHT22;6865;52.552;13.434;2023-01-29T07:28:06;0.70;99.90
13589;DHT22;6865;52.552;13.434;2023-01-29T07:30:33;0.70;99.90
13589;DHT22;6865;52.552;13.434;2023-01-29T07:33:04;0.70;99.90
13589;DHT22;6865;52.552;13.434;2023-01-29T07:35:37;0.70;99.90
13589;DHT22;6865;52.552;13.434;2023-01-29T07:38:05;0.80;99.90
13589;DHT22;6865;52.552;13.434;2023-01-29T07:40:32;0.80;99.90
13589;DHT22;6865;52.552;13.434;2023-01-29T07:43:03;0.80;99.90
13589;DHT22;6865;52.552;13.434;2023-01-29T07:45:33;0.80;99.90
13589;DHT22;6865;52.552;13.434;2023-01-29T07:48:00;0.80;99.90
13589;DHT22;6865;52.552;13.434;2023-01-29T07:50:27;0.90;99.90
13589;DHT22;6865;52.552;13.434;2023-01-29T07:52:54;1.30;99.90
13589;DHT22;6865;52.552;13.434;2023-01-29T07:55:20;0.90;99.90
13589;DHT22;6865;52.552;13.434;2023-01-29T07:57:58;0.90;99.90
13589;DHT22;6865;52.552;13.434;2023-01-29T08:00:25;1.00;99.90
13589;DHT22;6865;52.552;13.434;2023-01-29T08:02:51;1.00;99.90
13589;DHT22;6865;52.552;13.434;2023-01-29T08:05:18;1.00;99.90
13589;DHT22;6865;52.552;13.434;2023-01-29T08:07:49;0.90;99.90
13589;DHT22;6865;52.552;13.434;2023-01-29T08:10:31;1.00;99.90
13589;DHT22;6865;52.552;13.434;2023-01-29T08:13:00;1.00;99.90
13589;DHT22;6865;52.552;13.434;2023-01-29T08:15:27;1.00;99.90
13589;DHT22;6865;52.552;13.434;2023-01-29T08:17:54;1.00;99.90
13589;DHT22;6865;52.552;13.434;2023-01-29T08:20:23;1.00;99.90
13589;DHT22;6865;52.552;13.434;2023-01-29T08:23:01;1.10;99.90
13589;DHT22;6865;52.552;13.434;2023-01-29T08:25:28;1.10;99.90
13589;DHT22;6865;52.552;13.434;2023-01-29T08:27:56;1.10;99.90
13589;DHT22;6865;52.552;13.434;2023-01-29T08:30:25;1.10;99.90
13589;DHT22;6865;52.552;13.434;2023-01-29T08:32:52;1.10;99.90
13589;DHT22;6865;52.552;13.434;2023-01-29T08:35:18;1.00;99.90
13589;DHT22;6865;52.552;13.434;2023-01-29T08:37:58;1.00;99.90
13589;DHT22;6865;52.552;13.434;2023-01-29T08:40:27;1.00;99.90
13589;DHT22;6865;52.552;13.434;2023-01-29T08:42:58;1.10;99.90
13589;DHT22;6865;52.552;13.434;2023-01-29T08:45:28;1.10;99.90
13589;DHT22;6865;52.552;13.434;2023-01-29T08:47:55;1.10;99.90
13589;DHT22;6865;52.552;13.434;2023-01-29T08:50:22;1.10;99.90
13589;DHT22;6865;52.552;13.434;2023-01-29T08:52:48;1.30;99.90
13589;DHT22;6865;52.552;13.434;2023-01-29T08:55:15;1.20;99.90
13589;DHT22;6865;52.552;13.434;2023-01-29T08:57:42;1.20;99.90
13589;DHT22;6865;52.552;13.434;2023-01-29T09:00:09;1.20;99.90
13589;DHT22;6865;52.552;13.434;2023-01-29T09:02:37;1.30;99.90
13589;DHT22;6865;52.552;13.434;2023-01-29T09:05:04;1.20;99.90
13589;DHT22;6865;52.552;13.434;2023-01-29T09:07:31;1.30;99.90
13589;DHT22;6865;52.552;13.434;2023-01-29T09:09:57;1.30;99.90
13589;DHT22;6865;52.552;13.434;2023-01-29T09:12:24;1.30;99.90
13589;DHT22;6865;52.552;13.434;2023-01-29T09:14:51;1.30;99.90
13589;DHT22;6865;52.552;13.434;2023-01-29T09:17:17;1.30;99.90
13589;DHT22;6865;52.552;13.434;2023-01-29T09:19:44;1.40;99.90
13589;DHT22;6865;52.552;13.434;2023-01-29T09:22:11;1.30;99.90
13589;DHT22;6865;52.552;13.434;2023-01-29T09:24:37;1.40;99.90
13589;DHT22;6865;52.552;13.434;2023-01-29T09:27:04;1.40;99.90
13589;DHT22;6865;52.552;13.434;2023-01-29T09:29:31;1.40;99.90
13589;DHT22;6865;52.552;13.434;2023-01-29T09:32:02;1.40;99.90
13589;DHT22;6865;52.552;13.434;2023-01-29T09:34:29;1.40;99.90
13589;DHT22;6865;52.552;13.434;2023-01-29T09:36:56;1.40;99.90
13589;DHT22;6865;52.552;13.434;2023-01-29T09:39:22;1.40;99.90
13589;DHT22;6865;52.552;13.434;2023-01-29T09:47:34;1.50;99.90
13589;DHT22;6865;52.552;13.434;2023-01-29T09:50:13;1.50;99.90
13589;DHT22;6865;52.552;13.434;2023-01-29T09:52:52;1.60;99.90
13589;DHT22;6865;52.552;13.434;2023-01-29T09:55:30;1.70;99.90
13589;DHT22;6865;52.552;13.434;2023-01-29T09:58:02;1.70;99.90
13589;DHT22;6865;52.552;13.434;2023-01-29T10:00:50;1.70;99.90
13589;DHT22;6865;52.552;13.434;2023-01-29T10:14:24;1.80;99.90
13589;DHT22;6865;52.552;13.434;2023-01-29T10:17:37;1.90;99.90
13589;DHT22;6865;52.552;13.434;2023-01-29T10:23:11;2.00;99.90
13589;DHT22;6865;52.552;13.434;2023-01-29T10:25:40;2.10;99.90
13589;DHT22;6865;52.552;13.434;2023-01-29T10:28:17;2.10;99.90
13589;DHT22;6865;52.552;13.434;2023-01-29T10:30:47;2.20;99.90
13589;DHT22;6865;52.552;13.434;2023-01-29T10:33:30;2.20;99.90
13589;DHT22;6865;52.552;13.434;2023-01-29T10:36:25;2.20;99.90
13589;DHT22;6865;52.552;13.434;2023-01-29T10:38:54;2.30;99.90
13589;DHT22;6865;52.552;13.434;2023-01-29T10:47:45;2.40;99.90
13589;DHT22;6865;52.552;13.434;2023-01-29T10:50:22;2.40;99.90
13589;DHT22;6865;52.552;13.434;2023-01-29T10:53:05;2.50;99.90
13589;DHT22;6865;52.552;13.434;2023-01-29T10:55:45;2.50;99.90
13589;DHT22;6865;52.552;13.434;2023-01-29T10:58:18;2.60;99.90
13589;DHT22;6865;52.552;13.434;2023-01-29T11:00:48;2.60;99.90
13589;DHT22;6865;52.552;13.434;2023-01-29T11:06:32;2.80;99.90
13589;DHT22;6865;52.552;13.434;2023-01-29T11:12:13;2.90;99.90
13589;DHT22;6865;52.552;13.434;2023-01-29T11:14:54;2.90;99.90
13589;DHT22;6865;52.552;13.434;2023-01-29T11:17:24;2.80;99.90
13589;DHT22;6865;52.552;13.434;2023-01-29T11:19:52;2.80;99.90
13589;DHT22;6865;52.552;13.434;2023-01-29T11:22:26;2.90;99.90
13589;DHT22;6865;52.552;13.434;2023-01-29T11:25:16;2.90;99.90
13589;DHT22;6865;52.552;13.434;2023-01-29T11:27:46;3.10;99.90
13589;DHT22;6865;52.552;13.434;2023-01-29T11:30:37;3.20;99.90
13589;DHT22;6865;52.552;13.434;2023-01-29T11:33:20;2.70;99.90
13589;DHT22;6865;52.552;13.434;2023-01-29T11:35:49;3.20;99.90
13589;DHT22;6865;52.552;13.434;2023-01-29T11:38:22;3.10;99.90
13589;DHT22;6865;52.552;13.434;2023-01-29T11:40:50;3.10;99.90
13589;DHT22;6865;52.552;13.434;2023-01-29T11:43:29;3.20;99.90
13589;DHT22;6865;52.552;13.434;2023-01-29T11:46:05;3.20;99.90
13589;DHT22;6865;52.552;13.434;2023-01-29T11:48:44;3.20;99.90
13589;DHT22;6865;52.552;13.434;2023-01-29T11:51:21;2.70;99.90
13589;DHT22;6865;52.552;13.434;2023-01-29T11:53:52;3.10;99.90
13589;DHT22;6865;52.552;13.434;2023-01-29T11:56:21;3.20;99.90
13589;DHT22;6865;52.552;13.434;2023-01-29T11:58:50;3.20;99.90
13589;DHT22;6865;52.552;13.434;2023-01-29T12:01:34;3.30;99.90
13589;DHT22;6865;52.552;13.434;2023-01-29T12:04:09;3.30;99.90
13589;DHT22;6865;52.552;13.434;2023-01-29T12:06:41;3.50;99.90
13589;DHT22;6865;52.552;13.434;2023-01-29T12:09:14;3.50;99.90
13589;DHT22;6865;52.552;13.434;2023-01-29T12:11:42;3.50;99.90
13589;DHT22;6865;52.552;13.434;2023-01-29T12:14:31;3.60;99.90
13589;DHT22;6865;52.552;13.434;2023-01-29T12:17:16;3.50;99.90
13589;DHT22;6865;52.552;13.434;2023-01-29T12:20:01;3.50;99.90
13589;DHT22;6865;52.552;13.434;2023-01-29T12:22:50;3.60;99.90
13589;DHT22;6865;52.552;13.434;2023-01-29T12:25:44;3.70;99.90
13589;DHT22;6865;52.552;13.434;2023-01-29T12:28:21;3.60;99.90
13589;DHT22;6865;52.552;13.434;2023-01-29T12:34:14;3.50;99.90
13589;DHT22;6865;52.552;13.434;2023-01-29T12:36:47;3.50;99.90
13589;DHT22;6865;52.552;13.434;2023-01-29T12:39:19;3.60;99.90
13589;DHT22;6865;52.552;13.434;2023-01-29T12:41:49;3.50;99.90
13589;DHT22;6865;52.552;13.434;2023-01-29T12:47:18;3.50;99.90
13589;DHT22;6865;52.552;13.434;2023-01-29T12:49:50;3.60;99.90
13589;DHT22;6865;52.552;13.434;2023-01-29T12:54:59;3.60;99.90
13589;DHT22;6865;52.552;13.434;2023-01-29T12:57:59;3.60;99.90
13589;DHT22;6865;52.552;13.434;2023-01-29T13:00:47;3.60;99.90
13589;DHT22;6865;52.552;13.434;2023-01-29T13:03:26;3.50;99.90
13589;DHT22;6865;52.552;13.434;2023-01-29T13:06:06;3.50;99.90
13589;DHT22;6865;52.552;13.434;2023-01-29T13:08:55;3.50;99.90
13589;DHT22;6865;52.552;13.434;2023-01-29T13:11:38;3.40;99.90
13589;DHT22;6865;52.552;13.434;2023-01-29T13:14:18;3.30;99.90
13589;DHT22;6865;52.552;13.434;2023-01-29T13:16:48;3.30;99.90
13589;DHT22;6865;52.552;13.434;2023-01-29T13:21:54;3.40;99.90
13589;DHT22;6865;52.552;13.434;2023-01-29T13:24:24;3.40;99.90
13589;DHT22;6865;52.552;13.434;2023-01-29T13:26:51;3.40;99.90
13589;DHT22;6865;52.552;13.434;2023-01-29T13:29:28;3.40;99.90
13589;DHT22;6865;52.552;13.434;2023-01-29T13:31:56;3.50;99.90
13589;DHT22;6865;52.552;13.434;2023-01-29T13:34:27;3.50;99.90
13589;DHT22;6865;52.552;13.434;2023-01-29T13:36:57;3.50;99.90
13589;DHT22;6865;52.552;13.434;2023-01-29T13:39:31;3.50;99.90
13589;DHT22;6865;52.552;13.434;2023-01-29T13:42:00;3.50;99.90
13589;DHT22;6865;52.552;13.434;2023-01-29T13:44:38;3.50;99.90
13589;DHT22;6865;52.552;13.434;2023-01-29T13:47:09;3.40;99.90
13589;DHT22;6865;52.552;13.434;2023-01-29T13:49:45;3.30;99.90
13589;DHT22;6865;52.552;13.434;2023-01-29T13:52:40;3.20;99.90
13589;DHT22;6865;52.552;13.434;2023-01-29T14:10:36;3.00;99.90
13589;DHT22;6865;52.552;13.434;2023-01-29T14:15:32;2.90;99.90
13589;DHT22;6865;52.552;13.434;2023-01-29T14:18:17;2.90;99.90
13589;DHT22;6865;52.552;13.434;2023-01-29T14:20:51;2.90;99.90
13589;DHT22;6865;52.552;13.434;2023-01-29T14:25:58;2.80;99.90
13589;DHT22;6865;52.552;13.434;2023-01-29T14:28:28;2.70;99.90
13589;DHT22;6865;52.552;13.434;2023-01-29T14:30:56;2.70;99.90
13589;DHT22;6865;52.552;13.434;2023-01-29T14:33:32;2.60;99.90
13589;DHT22;6865;52.552;13.434;2023-01-29T14:36:05;2.60;99.90
13589;DHT22;6865;52.552;13.434;2023-01-29T14:38:33;2.60;99.90
13589;DHT22;6865;52.552;13.434;2023-01-29T14:41:28;2.60;99.90
13589;DHT22;6865;52.552;13.434;2023-01-29T14:47:04;2.50;99.90
13589;DHT22;6865;52.552;13.434;2023-01-29T14:49:50;2.50;99.90
13589;DHT22;6865;52.552;13.434;2023-01-29T14:52:38;2.50;99.90
13589;DHT22;6865;52.552;13.434;2023-01-29T14:55:14;2.50;99.90
13589;DHT22;6865;52.552;13.434;2023-01-29T14:57:44;2.50;99.90
13589;DHT22;6865;52.552;13.434;2023-01-29T15:00:18;2.60;99.90
13589;DHT22;6865;52.552;13.434;2023-01-29T15:02:47;2.50;99.90
13589;DHT22;6865;52.552;13.434;2023-01-29T15:05:30;2.40;99.90
13589;DHT22;6865;52.552;13.434;2023-01-29T15:08:05;2.40;99.90
13589;DHT22;6865;52.552;13.434;2023-01-29T15:10:44;2.40;99.90
13589;DHT22;6865;52.552;13.434;2023-01-29T15:15:53;2.30;99.90
13589;DHT22;6865;52.552;13.434;2023-01-29T15:18:32;2.30;99.90
13589;DHT22;6865;52.552;13.434;2023-01-29T15:21:11;2.30;99.90
13589;DHT22;6865;52.552;13.434;2023-01-29T15:23:39;2.20;99.90
13589;DHT22;6865;52.552;13.434;2023-01-29T15:26:20;2.20;99.90
13589;DHT22;6865;52.552;13.434;2023-01-29T15:28:59;2.20;99.90
13589;DHT22;6865;52.552;13.434;2023-01-29T15:31:31;2.20;99.90
13589;DHT22;6865;52.552;13.434;2023-01-29T15:34:00;2.20;99.90
13589;DHT22;6865;52.552;13.434;2023-01-29T15:36:30;2.20;99.90
13589;DHT22;6865;52.552;13.434;2023-01-29T15:39:16;2.20;99.90
13589;DHT22;6865;52.552;13.434;2023-01-29T15:41:44;2.20;99.90
13589;DHT22;6865;52.552;13.434;2023-01-29T15:44:13;2.20;99.90
13589;DHT22;6865;52.552;13.434;2023-01-29T15:46:44;2.20;99.90
13589;DHT22;6865;52.552;13.434;2023-01-29T15:49:22;2.30;99.90
13589;DHT22;6865;52.552;13.434;2023-01-29T15:51:55;2.00;99.90
13589;DHT22;6865;52.552;13.434;2023-01-29T15:54:23;2.20;99.90
13589;DHT22;6865;52.552;13.434;2023-01-29T15:56:52;2.30;99.90
13589;DHT22;6865;52.552;13.434;2023-01-29T15:59:25;2.30;99.90
13589;DHT22;6865;52.552;13.434;2023-01-29T16:01:52;2.20;99.90
13589;DHT22;6865;52.552;13.434;2023-01-29T16:04:26;1.00;99.90
13589;DHT22;6865;52.552;13.434;2023-01-29T16:06:57;2.20;99.90
13589;DHT22;6865;52.552;13.434;2023-01-29T16:09:25;2.20;99.90
13589;DHT22;6865;52.552;13.434;2023-01-29T16:11:53;2.20;99.90
13589;DHT22;6865;52.552;13.434;2023-01-29T16:14:23;2.20;99.90
13589;DHT22;6865;52.552;13.434;2023-01-29T16:16:51;2.20;99.90
13589;DHT22;6865;52.552;13.434;2023-01-29T16:19:24;2.20;99.90
13589;DHT22;6865;52.552;13.434;2023-01-29T16:21:58;2.30;99.90
13589;DHT22;6865;52.552;13.434;2023-01-29T16:24:25;2.20;99.90
13589;DHT22;6865;52.552;13.434;2023-01-29T16:26:58;2.20;99.90
13589;DHT22;6865;52.552;13.434;2023-01-29T16:29:31;2.30;99.90
13589;DHT22;6865;52.552;13.434;2023-01-29T16:31:59;2.20;99.90
13589;DHT22;6865;52.552;13.434;2023-01-29T16:34:34;2.20;99.90
13589;DHT22;6865;52.552;13.434;2023-01-29T16:37:04;2.20;99.90
13589;DHT22;6865;52.552;13.434;2023-01-29T16:39:35;2.20;99.90
13589;DHT22;6865;52.552;13.434;2023-01-29T16:44:39;2.20;99.90
13589;DHT22;6865;52.552;13.434;2023-01-29T16:47:23;2.20;99.90
13589;DHT22;6865;52.552;13.434;2023-01-29T16:53:01;2.30;99.90
13589;DHT22;6865;52.552;13.434;2023-01-29T16:55:42;2.40;99.90
13589;DHT22;6865;52.552;13.434;2023-01-29T16:58:15;2.30;99.90
13589;DHT22;6865;52.552;13.434;2023-01-29T17:00:47;2.30;99.90
13589;DHT22;6865;52.552;13.434;2023-01-29T17:03:15;2.80;99.90
13589;DHT22;6865;52.552;13.434;2023-01-29T17:05:43;2.30;99.90
13589;DHT22;6865;52.552;13.434;2023-01-29T17:08:21;2.20;99.90
13589;DHT22;6865;52.552;13.434;2023-01-29T17:10:48;2.30;99.90
13589;DHT22;6865;52.552;13.434;2023-01-29T17:13:28;2.30;99.90
13589;DHT22;6865;52.552;13.434;2023-01-29T17:16:00;2.30;99.90
13589;DHT22;6865;52.552;13.434;2023-01-29T17:18:28;2.20;99.90
13589;DHT22;6865;52.552;13.434;2023-01-29T17:20:55;2.20;99.90
13589;DHT22;6865;52.552;13.434;2023-01-29T17:23:21;2.10;99.90
13589;DHT22;6865;52.552;13.434;2023-01-29T17:25:48;2.30;99.90
13589;DHT22;6865;52.552;13.434;2023-01-29T17:28:16;2.30;99.90
13589;DHT22;6865;52.552;13.434;2023-01-29T17:30:43;2.20;99.90
13589;DHT22;6865;52.552;13.434;2023-01-29T17:33:19;2.30;99.90
13589;DHT22;6865;52.552;13.434;2023-01-29T17:35:49;2.30;99.90
13589;DHT22;6865;52.552;13.434;2023-01-29T17:38:18;2.40;99.90
13589;DHT22;6865;52.552;13.434;2023-01-29T17:41:17;2.40;99.90
13589;DHT22;6865;52.552;13.434;2023-01-29T17:43:46;2.40;99.90
13589;DHT22;6865;52.552;13.434;2023-01-29T17:46:15;2.40;99.90
13589;DHT22;6865;52.552;13.434;2023-01-29T17:48:42;2.40;99.90
13589;DHT22;6865;52.552;13.434;2023-01-29T17:51:14;2.40;99.90
13589;DHT22;6865;52.552;13.434;2023-01-29T17:53:42;2.30;99.90
13589;DHT22;6865;52.552;13.434;2023-01-29T17:56:16;2.40;99.90
13589;DHT22;6865;52.552;13.434;2023-01-29T17:58:43;2.40;99.90
13589;DHT22;6865;52.552;13.434;2023-01-29T18:01:10;2.40;99.90